Time;durP1;ratioP1;P1;durP2;ratioP2;P2;SDS_P1;SDS_P2;PMS_P1;PMS_P2;Temp;Humidity;BMP_temperature;BMP_pressure;BME280_temperature;BME280_humidity;BME280_pressure;Samples;Min_cycle;Max_cycle;Signal;HPM_P1;HPM_P2
2023/03/20 00:01:21;;;;;;;17.77;10.60;;;;;;;7.77;100.00;101818.50;5261916;28;20116;-68
2023/03/20 00:03:53;;;;;;;16.80;10.52;;;;;;;7.78;100.00;101818.50;5262102;28;20116;-68
2023/03/20 00:06:30;;;;;;;17.07;11.07;;;;;;;7.73;100.00;101824.47;5264168;28;20170;-68
2023/03/20 00:09:02;;;;;;;20.83;11.35;;;;;;;7.62;100.00;101827.78;5265910;28;20431;-68
2023/03/20 00:11:46;;;;;;;13.82;10.50;;;;;;;7.69;100.00;101825.28;5265740;28;20350;-67
2023/03/20 00:14:21;;;;;;;19.75;12.43;;;;;;;7.66;100.00;101818.31;5266550;28;20559;-67
2023/03/20 00:16:52;;;;;;;18.70;10.82;;;;;;;7.65;100.00;101827.84;5266017;28;20368;-66
2023/03/20 00:19:26;;;;;;;19.23;12.00;;;;;;;7.63;100.00;101823.44;5265987;28;20037;-68
2023/03/20 00:21:58;;;;;;;20.35;11.05;;;;;;;7.62;100.00;101819.13;5265997;28;20029;-67
2023/03/20 00:24:29;;;;;;;18.10;11.87;;;;;;;7.57;100.00;101818.19;5265810;28;20079;-67
2023/03/20 00:27:01;;;;;;;18.50;10.73;;;;;;;7.54;100.00;101811.22;5265779;28;20029;-67
2023/03/20 00:29:33;;;;;;;14.80;10.55;;;;;;;7.56;100.00;101803.47;5265445;28;20026;-68
2023/03/20 00:32:07;;;;;;;17.23;11.20;;;;;;;7.48;100.00;101800.72;5265354;28;20472;-67
2023/03/20 00:34:39;;;;;;;17.92;11.45;;;;;;;7.35;100.00;101789.28;5265205;28;20028;-67
2023/03/20 00:37:10;;;;;;;16.93;10.83;;;;;;;7.22;100.00;101793.38;5265233;28;20098;-66
2023/03/20 00:39:41;;;;;;;19.80;10.80;;;;;;;7.20;100.00;101800.28;5265260;28;20029;-67
2023/03/20 00:42:20;;;;;;;19.33;11.27;;;;;;;7.09;100.00;101784.53;5265160;28;20029;-67
2023/03/20 00:44:54;;;;;;;18.25;10.10;;;;;;;6.98;100.00;101777.41;5265635;28;20056;-67
2023/03/20 00:47:27;;;;;;;17.42;11.10;;;;;;;6.92;100.00;101780.75;5265102;28;20087;-66
2023/03/20 00:49:58;;;;;;;15.93;10.65;;;;;;;6.86;100.00;101778.03;5264901;28;20037;-67
2023/03/20 00:52:30;;;;;;;16.43;10.60;;;;;;;6.74;100.00;101774.38;5265162;28;20032;-66
2023/03/20 00:55:01;;;;;;;15.73;10.37;;;;;;;6.73;100.00;101785.59;5264990;28;20060;-68
2023/03/20 00:57:39;;;;;;;16.73;10.57;;;;;;;6.68;100.00;101783.75;5264552;28;20062;-66
2023/03/20 01:00:20;;;;;;;17.40;11.20;;;;;;;6.57;100.00;101792.19;5264796;28;20075;-67
2023/03/20 01:02:54;;;;;;;18.05;10.18;;;;;;;6.56;100.00;101792.16;5264345;28;20051;-66
2023/03/20 01:05:27;;;;;;;14.32;10.48;;;;;;;6.45;100.00;101804.03;5264935;28;20460;-66
2023/03/20 01:07:59;;;;;;;18.83;10.90;;;;;;;6.42;100.00;101812.59;5264220;28;20110;-65
2023/03/20 01:10:31;;;;;;;18.40;12.10;;;;;;;6.35;100.00;101832.31;5265171;28;20468;-67
2023/03/20 01:13:03;;;;;;;18.95;12.35;;;;;;;6.28;100.00;101834.75;5264309;28;20130;-67
2023/03/20 01:15:35;;;;;;;22.30;13.97;;;;;;;6.25;100.00;101835.56;5264549;28;20083;-67
2023/03/20 01:18:11;;;;;;;23.05;12.93;;;;;;;6.23;100.00;101823.41;5264047;28;20040;-69
2023/03/20 01:20:43;;;;;;;17.35;11.38;;;;;;;6.15;100.00;101818.94;5264486;28;20033;-69
2023/03/20 01:23:15;;;;;;;19.13;13.37;;;;;;;6.08;100.00;101801.53;5264486;28;20046;-67
2023/03/20 01:25:46;;;;;;;18.35;12.23;;;;;;;6.11;100.00;101801.59;5264013;28;20032;-66
2023/03/20 01:28:22;;;;;;;21.13;13.67;;;;;;;6.01;100.00;101807.41;5264949;28;20115;-68
2023/03/20 01:30:54;;;;;;;20.23;12.95;;;;;;;5.97;100.00;101793.53;5264253;28;20117;-67
2023/03/20 01:33:26;;;;;;;22.10;14.27;;;;;;;5.94;100.00;101821.00;5246449;28;20108;-67
2023/03/20 01:35:58;;;;;;;23.05;14.48;;;;;;;5.93;100.00;101817.56;5264133;28;20036;-67
2023/03/20 01:38:29;;;;;;;19.87;13.40;;;;;;;5.88;100.00;101802.78;5264452;28;20139;-67
2023/03/20 01:41:12;;;;;;;22.80;14.23;;;;;;;5.83;100.00;101808.72;5264444;28;20044;-66
2023/03/20 01:43:44;;;;;;;;;;;;;;;5.83;100.00;101805.25;5264719;28;20104;-67
2023/03/20 01:46:18;;;;;;;22.15;14.75;;;;;;;5.83;100.00;101813.88;5264041;28;20275;-68
2023/03/20 01:48:49;;;;;;;27.08;15.55;;;;;;;5.86;100.00;101810.50;5264335;28;20095;-66
2023/03/20 01:51:29;;;;;;;18.97;14.70;;;;;;;5.87;100.00;101798.44;5264324;28;20465;-67
2023/03/20 01:54:08;;;;;;;22.50;15.05;;;;;;;5.89;100.00;101804.50;5263593;28;20329;-67
2023/03/20 01:56:48;;;;;;;19.90;13.88;;;;;;;5.87;100.00;101796.72;5246503;28;20033;-66
2023/03/20 01:59:25;;;;;;;23.13;15.15;;;;;;;5.79;100.00;101798.25;5246361;28;20033;-68
2023/03/20 02:01:57;;;;;;;29.92;15.60;;;;;;;5.83;100.00;101798.34;5263864;28;20047;-67
2023/03/20 02:04:34;;;;;;;20.27;15.30;;;;;;;5.80;100.00;101807.78;5263228;28;20033;-68
2023/03/20 02:07:07;;;;;;;19.95;14.93;;;;;;;5.80;100.00;101803.47;5263838;28;20040;-69
2023/03/20 02:09:39;;;;;;;22.10;15.23;;;;;;;5.79;100.00;101795.66;5263865;28;20036;-67
2023/03/20 02:12:10;;;;;;;24.37;14.83;;;;;;;5.72;100.00;101797.25;5261673;28;20029;-67
2023/03/20 02:14:44;;;;;;;21.77;15.87;;;;;;;5.73;100.00;101816.22;5263301;28;20025;-67
2023/03/20 02:17:16;;;;;;;23.73;15.98;;;;;;;5.77;100.00;101818.91;5263131;28;20029;-67
2023/03/20 02:20:15;;;;;;;23.50;16.00;;;;;;;5.66;100.00;101818.66;5262884;28;20075;-67
2023/03/20 02:23:28;;;;;;;21.85;15.30;;;;;;;5.62;100.00;101822.00;5263366;28;20029;-68
2023/03/20 02:26:05;;;;;;;25.85;16.98;;;;;;;5.62;100.00;101828.91;5225702;28;20047;-67
2023/03/20 02:28:42;;;;;;;27.98;16.90;;;;;;;5.59;100.00;101832.28;5262826;28;20083;-68
2023/03/20 02:31:23;;;;;;;28.10;16.85;;;;;;;5.57;100.00;101840.81;5263449;28;20333;-67
2023/03/20 02:34:07;;;;;;;25.77;16.40;;;;;;;5.54;100.00;101830.41;5262934;28;20380;-67
2023/03/20 02:37:16;;;;;;;26.20;16.70;;;;;;;5.57;100.00;101825.31;5263384;28;20060;-66
2023/03/20 02:40:01;;;;;;;25.38;17.48;;;;;;;5.50;100.00;101805.31;5262128;28;20049;-66
2023/03/20 02:42:59;;;;;;;25.60;16.13;;;;;;;5.55;100.00;101811.47;5262496;28;20056;-66
2023/03/20 02:45:43;;;;;;;25.05;17.65;;;;;;;5.54;100.00;101805.44;5259040;28;20480;-66
2023/03/20 02:48:26;;;;;;;24.77;17.33;;;;;;;5.54;100.00;101807.13;5263261;28;20039;-67
2023/03/20 02:51:23;;;;;;;26.95;18.30;;;;;;;5.53;100.00;101795.91;5262922;28;20028;-67
2023/03/20 02:54:25;;;;;;;32.15;17.38;;;;;;;5.52;100.00;101793.28;5262781;28;20053;-67
2023/03/20 02:57:07;;;;;;;26.02;16.85;;;;;;;5.47;100.00;101786.31;5262687;28;20325;-67
2023/03/20 02:59:42;;;;;;;26.70;17.83;;;;;;;5.47;100.00;101800.94;5263009;28;20021;-68
2023/03/20 03:02:22;;;;;;;24.77;16.98;;;;;;;5.40;100.00;101796.47;5262823;28;20166;-67
2023/03/20 03:04:58;;;;;;;23.33;15.82;;;;;;;5.36;100.00;101790.34;5262924;28;20033;-67
2023/03/20 03:07:33;;;;;;;25.80;17.30;;;;;;;5.36;100.00;101787.75;5262229;28;20028;-67
2023/03/20 03:10:10;;;;;;;27.08;18.08;;;;;;;5.35;100.00;101777.38;5262849;28;20021;-67
2023/03/20 03:12:45;;;;;;;26.48;16.15;;;;;;;5.39;100.00;101786.94;5244790;28;20035;-66
2023/03/20 03:15:34;;;;;;;29.00;17.13;;;;;;;5.41;100.00;101770.66;5262215;28;20079;-69
2023/03/20 03:18:13;;;;;;;26.05;17.05;;;;;;;5.42;100.00;101774.97;5262933;28;20104;-67
2023/03/20 03:20:47;;;;;;;27.67;17.40;;;;;;;5.41;100.00;101768.06;5263214;28;20025;-66
2023/03/20 03:23:30;;;;;;;27.23;17.95;;;;;;;5.47;100.00;101760.47;5262897;28;20491;-66
2023/03/20 03:26:03;;;;;;;;;;;;;;;5.50;100.00;101761.34;5262790;28;20371;-66
2023/03/20 03:28:49;;;;;;;24.15;15.45;;;;;;;5.47;100.00;101752.69;5262234;28;20313;-66
2023/03/20 03:31:23;;;;;;;23.40;16.65;;;;;;;5.47;100.00;101755.28;5262469;28;20346;-67
2023/03/20 03:33:57;;;;;;;20.73;15.13;;;;;;;5.42;100.00;101756.00;5262146;28;20057;-66
2023/03/20 03:36:47;;;;;;;24.60;16.05;;;;;;;5.41;100.00;101762.88;5262101;28;20090;-66
2023/03/20 03:40:05;;;;;;;22.05;15.10;;;;;;;5.41;100.00;101765.47;5262409;28;20044;-68
2023/03/20 03:42:55;;;;;;;26.45;16.15;;;;;;;5.37;100.00;101753.28;5165695;28;20420;-68
2023/03/20 03:45:39;;;;;;;27.75;16.13;;;;;;;5.37;100.00;101745.53;5266223;28;20449;-66
2023/03/20 03:48:18;;;;;;;26.40;15.55;;;;;;;5.35;100.00;101744.63;5248189;28;20059;-67
2023/03/20 03:50:55;;;;;;;25.85;15.70;;;;;;;5.33;100.00;101743.72;5266372;28;20540;-66
2023/03/20 03:53:31;;;;;;;25.02;15.80;;;;;;;5.31;100.00;101750.56;5266443;28;20021;-66
2023/03/20 03:56:07;;;;;;;23.45;16.35;;;;;;;5.30;100.00;101743.66;5266060;28;20102;-66
2023/03/20 03:58:42;;;;;;;24.60;15.60;;;;;;;5.29;100.00;101747.94;5266263;28;20087;-66
2023/03/20 04:01:16;;;;;;;26.08;16.00;;;;;;;5.27;100.00;101753.91;5265736;28;20041;-67
2023/03/20 04:03:59;;;;;;;23.20;15.85;;;;;;;5.27;100.00;101747.03;5265947;28;20430;-67
2023/03/20 04:06:31;;;;;;;20.67;14.73;;;;;;;5.23;100.00;101746.91;5266108;28;20032;-66
2023/03/20 04:09:02;;;;;;;22.33;15.17;;;;;;;5.21;100.00;101743.44;5265820;28;20074;-66
2023/03/20 04:11:34;;;;;;;22.27;16.10;;;;;;;5.20;100.00;101737.38;5266652;28;20346;-66
2023/03/20 04:14:06;;;;;;;18.30;14.27;;;;;;;5.15;100.00;101738.97;5265626;28;20040;-67
2023/03/20 04:16:37;;;;;;;23.43;14.97;;;;;;;5.15;100.00;101731.22;5265514;28;20029;-66
2023/03/20 04:19:08;;;;;;;24.60;14.97;;;;;;;5.14;100.00;101739.81;5247761;28;20037;-66
2023/03/20 04:21:40;;;;;;;22.17;14.53;;;;;;;5.16;100.00;101735.56;5265609;28;20032;-67
2023/03/20 04:24:11;;;;;;;22.57;15.60;;;;;;;5.14;100.00;101728.63;5265592;28;20037;-66
2023/03/20 04:26:42;;;;;;;23.93;14.70;;;;;;;5.13;100.00;101729.44;5265874;28;20084;-67
2023/03/20 04:29:14;;;;;;;22.23;14.67;;;;;;;5.13;100.00;101726.84;5265492;28;20036;-67
2023/03/20 04:31:46;;;;;;;22.73;14.83;;;;;;;5.15;100.00;101740.69;5265664;28;20087;-67
2023/03/20 04:34:17;;;;;;;22.23;14.47;;;;;;;5.09;100.00;101731.94;5265941;28;20348;-67
2023/03/20 04:36:49;;;;;;;22.47;15.30;;;;;;;5.08;100.00;101735.34;5265301;28;20107;-66
2023/03/20 04:39:21;;;;;;;;;;;;;;;5.06;100.00;101729.28;5265562;28;20476;-67
2023/03/20 04:41:53;;;;;;;21.92;15.07;;;;;;;5.03;100.00;101736.94;5265301;28;19958;-66
2023/03/20 04:44:24;;;;;;;24.57;15.27;;;;;;;5.00;100.00;101729.13;5265620;28;20033;-66
2023/03/20 04:46:55;;;;;;;23.77;15.47;;;;;;;5.00;100.00;101736.88;5265130;28;20490;-67
2023/03/20 04:49:27;;;;;;;21.53;14.17;;;;;;;5.03;100.00;101724.03;5265104;28;20117;-67
2023/03/20 04:51:58;;;;;;;22.20;14.40;;;;;;;5.02;100.00;101709.34;5264474;28;20091;-67
2023/03/20 04:54:30;;;;;;;24.07;15.43;;;;;;;4.99;100.00;101703.25;5265005;28;20056;-68
2023/03/20 04:57:01;;;;;;;20.87;13.23;;;;;;;5.06;100.00;101707.75;5264890;28;20037;-67
2023/03/20 04:59:33;;;;;;;24.60;14.77;;;;;;;5.07;100.00;101706.88;5246994;28;20108;-67
2023/03/20 05:02:04;;;;;;;25.37;15.53;;;;;;;5.06;100.00;101710.31;5265311;28;20029;-66
2023/03/20 05:04:36;;;;;;;20.77;15.57;;;;;;;5.08;100.00;101714.69;5264686;28;20040;-66
2023/03/20 05:07:07;;;;;;;21.97;15.13;;;;;;;5.06;100.00;101718.09;5264413;28;20055;-67
2023/03/20 05:09:39;;;;;;;22.67;14.70;;;;;;;5.07;100.00;101724.97;5264602;28;20091;-67
2023/03/20 05:12:10;;;;;;;25.67;14.70;;;;;;;5.09;100.00;101724.19;5264190;28;20035;-67
2023/03/20 05:14:42;;;;;;;17.93;13.10;;;;;;;5.10;100.00;101718.19;5264707;28;20079;-68
2023/03/20 05:17:13;;;;;;;19.10;14.10;;;;;;;5.14;100.00;101707.94;5264562;28;20025;-68
2023/03/20 05:19:44;;;;;;;22.63;14.40;;;;;;;5.13;100.00;101714.78;5264998;28;20033;-68
2023/03/20 05:22:17;;;;;;;25.70;15.40;;;;;;;5.17;100.00;101710.56;5264302;28;20044;-68
2023/03/20 05:24:48;;;;;;;26.00;16.70;;;;;;;5.16;100.00;101709.69;5264435;28;20064;-68
2023/03/20 05:27:19;;;;;;;23.50;14.03;;;;;;;5.15;100.00;101702.78;5246482;28;20116;-68
2023/03/20 05:29:51;;;;;;;23.53;12.97;;;;;;;5.26;100.00;101705.63;5246414;28;20456;-67
2023/03/20 05:32:22;;;;;;;24.53;14.37;;;;;;;5.22;100.00;101701.25;5264172;28;20123;-66
2023/03/20 05:34:54;;;;;;;21.37;12.43;;;;;;;5.21;100.00;101709.81;5263972;28;20457;-67
2023/03/20 05:37:25;;;;;;;17.20;12.17;;;;;;;5.19;100.00;101706.34;5263976;28;20037;-66
2023/03/20 05:39:57;;;;;;;21.53;13.33;;;;;;;5.19;100.00;101709.78;5263985;28;20033;-67
2023/03/20 05:42:28;;;;;;;24.73;13.57;;;;;;;5.21;100.00;101702.06;5263627;28;20140;-66
2023/03/20 05:45:00;;;;;;;23.93;14.53;;;;;;;5.23;100.00;101709.03;5263551;28;20037;-66
2023/03/20 05:47:31;;;;;;;22.67;13.37;;;;;;;5.23;100.00;101714.19;5263697;28;20025;-67
2023/03/20 05:50:03;;;;;;;25.17;14.27;;;;;;;5.24;100.00;101713.34;5263682;28;20041;-66
2023/03/20 05:52:35;;;;;;;20.53;11.43;;;;;;;5.30;100.00;101710.91;5263608;28;20039;-67
2023/03/20 05:55:07;;;;;;;22.00;12.03;;;;;;;5.28;100.00;101722.94;5263091;28;20303;-67
2023/03/20 05:57:38;;;;;;;21.67;11.70;;;;;;;5.32;100.00;101718.72;5245663;28;20130;-67
2023/03/20 06:00:10;;;;;;;17.83;10.33;;;;;;;5.35;100.00;101731.72;5263289;28;20052;-68
2023/03/20 06:02:41;;;;;;;19.27;11.67;;;;;;;5.34;100.00;101717.03;5263296;28;20037;-67
2023/03/20 06:05:13;;;;;;;18.83;12.43;;;;;;;5.39;100.00;101746.44;5262781;28;20350;-67
2023/03/20 06:07:45;;;;;;;21.70;11.07;;;;;;;5.40;100.00;101743.03;5264018;28;20160;-67
2023/03/20 06:10:16;;;;;;;20.40;11.43;;;;;;;5.44;100.00;101746.56;5262035;28;20468;-68
2023/03/20 06:12:48;;;;;;;24.73;12.13;;;;;;;5.41;100.00;101747.38;5263030;28;20032;-67
2023/03/20 06:15:20;;;;;;;23.88;11.93;;;;;;;5.41;100.00;101742.19;5263280;28;20040;-68
2023/03/20 06:17:52;;;;;;;20.40;12.67;;;;;;;5.43;100.00;101744.81;5262578;28;20021;-67
2023/03/20 06:20:23;;;;;;;22.07;12.60;;;;;;;5.41;100.00;101749.97;5263375;28;20264;-68
2023/03/20 06:22:54;;;;;;;20.93;11.50;;;;;;;5.47;100.00;101744.94;5262246;28;20119;-67
2023/03/20 06:25:26;;;;;;;20.90;11.47;;;;;;;5.47;100.00;101752.69;5263498;28;20056;-68
2023/03/20 06:27:57;;;;;;;16.23;10.93;;;;;;;5.54;100.00;101745.06;5263339;28;20032;-68
2023/03/20 06:30:29;;;;;;;21.70;12.33;;;;;;;5.54;100.00;101755.41;5263109;28;20025;-68
2023/03/20 06:33:00;;;;;;;22.87;11.83;;;;;;;5.56;100.00;101748.56;5261736;28;20037;-69
2023/03/20 06:35:32;;;;;;;20.07;11.87;;;;;;;5.61;100.00;101750.41;5263225;28;20480;-67
2023/03/20 06:38:03;;;;;;;40.43;13.37;;;;;;;5.60;100.00;101756.44;5262765;28;20036;-68
2023/03/20 06:40:35;;;;;;;19.90;10.50;;;;;;;5.68;100.00;101755.72;5262944;28;20037;-68
2023/03/20 06:43:06;;;;;;;22.00;10.83;;;;;;;5.70;100.00;101743.69;5244885;28;20056;-68
2023/03/20 06:45:38;;;;;;;16.63;10.87;;;;;;;5.75;100.00;101765.41;5262861;28;20033;-68
2023/03/20 06:48:10;;;;;;;21.30;11.00;;;;;;;5.76;100.00;101765.41;5245156;28;20033;-68
2023/03/20 06:50:41;;;;;;;19.53;11.63;;;;;;;5.78;100.00;101776.69;5245383;28;20033;-68
2023/03/20 06:53:12;;;;;;;17.90;11.23;;;;;;;5.83;100.00;101785.41;5262853;28;20033;-67
2023/03/20 06:55:48;;;;;;;19.00;10.37;;;;;;;5.82;100.00;101785.38;5262533;28;20048;-67
2023/03/20 06:58:20;;;;;;;21.30;10.40;;;;;;;5.82;100.00;101788.84;5244708;28;20112;-67
2023/03/20 07:00:53;;;;;;;24.23;10.67;;;;;;;5.82;100.00;101786.25;5262588;28;20167;-68
2023/03/20 07:03:24;;;;;;;21.83;12.45;;;;;;;5.81;100.00;101783.63;5262509;28;20490;-68
2023/03/20 07:05:56;;;;;;;24.50;11.20;;;;;;;5.80;100.00;101787.94;5263136;28;20063;-67
2023/03/20 07:08:28;;;;;;;17.37;10.13;;;;;;;5.86;100.00;101789.81;5262757;28;20021;-67
2023/03/20 07:11:00;;;;;;;17.27;9.63;;;;;;;5.91;100.00;101795.06;5245031;28;20033;-67
2023/03/20 07:13:32;;;;;;;18.42;9.90;;;;;;;5.97;100.00;101803.91;5262466;28;20025;-67
2023/03/20 07:16:04;;;;;;;17.52;10.70;;;;;;;6.00;100.00;101800.47;5262062;28;20036;-67
2023/03/20 07:18:35;;;;;;;23.03;12.00;;;;;;;6.09;100.00;101802.41;5262302;28;20041;-67
2023/03/20 07:21:07;;;;;;;19.93;10.57;;;;;;;6.15;100.00;101803.41;5261034;28;20562;-68
2023/03/20 07:23:39;;;;;;;27.17;11.53;;;;;;;6.25;100.00;101808.78;5262141;28;20264;-68
2023/03/20 07:26:11;;;;;;;20.47;10.40;;;;;;;6.28;100.00;101807.16;5262383;28;20124;-68
2023/03/20 07:28:42;;;;;;;17.35;9.93;;;;;;;6.32;100.00;101801.19;5262353;28;20476;-68
2023/03/20 07:31:22;;;;;;;21.03;9.57;;;;;;;6.39;100.00;101808.25;5261922;28;20021;-68
2023/03/20 07:33:53;;;;;;;18.20;9.82;;;;;;;6.33;99.88;101813.28;5262229;28;20029;-68
2023/03/20 07:36:25;;;;;;;20.30;9.73;;;;;;;6.33;100.00;101812.44;5244332;28;20480;-68
2023/03/20 07:38:56;;;;;;;20.37;9.83;;;;;;;6.41;99.37;101810.88;5262112;28;20029;-68
2023/03/20 07:41:27;;;;;;;18.27;9.83;;;;;;;6.46;99.26;101822.19;5262185;28;20032;-68
2023/03/20 07:43:59;;;;;;;20.70;10.27;;;;;;;6.51;99.24;101817.97;5262135;28;20033;-68
2023/03/20 07:46:30;;;;;;;17.97;9.30;;;;;;;6.52;99.02;101814.56;5244256;28;20163;-68
2023/03/20 07:49:01;;;;;;;18.63;10.57;;;;;;;6.63;98.96;101816.47;5262410;28;20029;-68
2023/03/20 07:51:33;;;;;;;18.77;9.83;;;;;;;6.61;97.96;101811.25;5262020;28;20037;-68
2023/03/20 07:54:04;;;;;;;20.43;8.70;;;;;;;6.59;97.79;101812.97;5261828;28;20057;-69
2023/03/20 07:56:36;;;;;;;22.33;10.73;;;;;;;6.61;97.30;101807.81;5244032;28;20480;-68
2023/03/20 07:59:07;;;;;;;19.73;9.43;;;;;;;6.62;97.44;101812.13;5261943;28;20037;-67
2023/03/20 08:01:39;;;;;;;18.53;9.23;;;;;;;6.60;96.77;101816.41;5262855;28;20040;-68
2023/03/20 08:04:11;;;;;;;19.17;9.37;;;;;;;6.57;96.33;101815.53;5244145;28;20540;-67
2023/03/20 08:06:42;;;;;;;18.10;9.27;;;;;;;6.62;96.39;101818.19;5261869;28;20112;-68
2023/03/20 08:09:14;;;;;;;19.13;10.03;;;;;;;6.60;97.07;101808.63;5262169;28;20472;-68
2023/03/20 08:11:46;;;;;;;20.10;10.32;;;;;;;6.60;96.89;101816.41;5243763;28;20055;-67
2023/03/20 08:14:17;;;;;;;23.40;9.83;;;;;;;6.69;96.25;101814.88;5261708;28;20029;-66
2023/03/20 08:16:48;;;;;;;20.57;9.33;;;;;;;6.69;95.85;101821.78;5261745;28;20036;-67
2023/03/20 08:19:20;;;;;;;21.23;9.43;;;;;;;6.73;95.67;101815.84;5261460;28;20025;-67
2023/03/20 08:21:51;;;;;;;19.77;9.07;;;;;;;6.79;95.55;101818.53;5261579;28;20084;-67
2023/03/20 08:24:23;;;;;;;17.57;10.10;;;;;;;6.80;95.53;101819.41;5261685;28;20029;-67
2023/03/20 08:26:54;;;;;;;16.83;8.17;;;;;;;6.83;95.74;101809.97;5245088;28;20052;-67
2023/03/20 08:29:26;;;;;;;21.20;9.83;;;;;;;6.87;94.83;101811.75;5265438;28;20027;-67
2023/03/20 08:31:57;;;;;;;16.27;8.37;;;;;;;6.92;94.02;101807.56;5265446;28;20025;-67
2023/03/20 08:34:31;;;;;;;20.27;8.80;;;;;;;6.98;93.83;101806.78;5264912;28;20060;-68
2023/03/20 08:37:04;;;;;;;18.13;7.95;;;;;;;7.02;93.34;101816.38;5265171;28;20054;-66
2023/03/20 08:39:36;;;;;;;21.27;8.30;;;;;;;7.11;93.40;101813.06;5263975;28;20515;-67
2023/03/20 08:42:07;;;;;;;17.85;8.18;;;;;;;7.15;93.37;101816.59;5265071;28;20033;-67
2023/03/20 08:44:39;;;;;;;17.60;8.90;;;;;;;7.20;93.18;101815.84;5264833;28;20055;-67
2023/03/20 08:47:10;;;;;;;19.07;8.47;;;;;;;7.22;93.51;101811.53;5264772;28;20432;-67
2023/03/20 08:49:42;;;;;;;16.27;7.50;;;;;;;7.32;92.70;101825.53;5265090;28;20376;-67
2023/03/20 08:52:14;;;;;;;19.30;8.30;;;;;;;7.39;92.56;101818.72;5264927;28;20166;-67
2023/03/20 08:54:45;;;;;;;21.53;8.40;;;;;;;7.51;92.10;101812.91;5265328;28;20456;-67
2023/03/20 08:57:16;;;;;;;16.27;7.67;;;;;;;7.57;91.83;101821.66;5265296;28;20029;-67
2023/03/20 08:59:48;;;;;;;16.80;7.67;;;;;;;7.52;91.32;101815.50;5247139;28;20033;-67
2023/03/20 09:02:19;;;;;;;16.73;7.20;;;;;;;7.42;91.72;101816.19;5265048;28;20033;-67
2023/03/20 09:04:51;;;;;;;17.53;7.53;;;;;;;7.38;91.47;101811.81;5265094;28;20060;-67
2023/03/20 09:07:22;;;;;;;17.90;7.63;;;;;;;7.33;91.83;101813.47;5264531;28;20029;-67
2023/03/20 09:09:53;;;;;;;18.77;7.87;;;;;;;7.21;92.28;101811.50;5264552;28;20040;-67
2023/03/20 09:12:25;;;;;;;21.43;8.07;;;;;;;7.12;92.59;101815.69;5264459;28;20090;-66
2023/03/20 09:14:56;;;;;;;15.23;8.87;;;;;;;6.97;93.87;101819.72;5264264;28;20040;-68
2023/03/20 09:17:28;;;;;;;23.87;9.23;;;;;;;6.84;95.68;101835.06;5264890;28;20033;-66
2023/03/20 09:19:59;;;;;;;20.30;9.00;;;;;;;6.63;99.48;101824.25;5265061;28;20072;-67
2023/03/20 09:22:31;;;;;;;20.90;8.50;;;;;;;6.42;100.00;101822.09;5263772;28;20033;-67
2023/03/20 09:25:02;;;;;;;25.33;10.23;;;;;;;6.36;100.00;101828.91;5264286;28;20064;-67
2023/03/20 09:27:34;;;;;;;24.43;9.33;;;;;;;6.28;100.00;101835.63;5264500;28;20025;-67
2023/03/20 09:30:07;;;;;;;22.20;9.43;;;;;;;6.25;100.00;101832.06;5264153;28;20469;-67
2023/03/20 09:32:38;;;;;;;22.85;9.63;;;;;;;6.14;100.00;101839.63;5264408;28;20029;-70
2023/03/20 09:35:10;;;;;;;17.30;8.97;;;;;;;6.14;100.00;101832.72;5262770;28;20377;-68
2023/03/20 09:37:41;;;;;;;17.93;10.00;;;;;;;5.98;100.00;101831.50;5263854;28;20021;-68
2023/03/20 09:40:23;;;;;;;19.73;9.40;;;;;;;6.09;100.00;101828.31;5264047;28;20082;-67
2023/03/20 09:43:04;;;;;;;20.00;10.57;;;;;;;6.13;100.00;101832.69;5264557;28;20033;-67
2023/03/20 09:45:45;;;;;;;21.35;9.88;;;;;;;6.08;100.00;101830.00;5264286;28;20032;-67
2023/03/20 09:48:28;;;;;;;21.50;9.57;;;;;;;6.08;100.00;101835.16;5263974;28;20420;-67
2023/03/20 09:51:12;;;;;;;22.60;10.77;;;;;;;6.01;100.00;101838.47;5263906;28;20029;-66
2023/03/20 09:53:48;;;;;;;23.85;11.10;;;;;;;5.96;100.00;101825.44;5263817;28;20063;-67
2023/03/20 09:56:24;;;;;;;23.17;10.35;;;;;;;6.09;100.00;101823.13;5264044;28;20526;-66
2023/03/20 09:59:01;;;;;;;32.72;12.05;;;;;;;6.18;100.00;101820.72;5263739;28;20140;-67
2023/03/20 10:01:45;;;;;;;26.23;11.07;;;;;;;6.17;100.00;101824.16;5263898;28;20031;-66
2023/03/20 10:04:16;;;;;;;23.48;9.77;;;;;;;6.10;100.00;101815.41;5264016;28;20054;-67
2023/03/20 10:06:48;;;;;;;23.93;10.37;;;;;;;6.14;100.00;101817.19;5263360;28;20059;-67
2023/03/20 10:09:30;;;;;;;19.67;10.00;;;;;;;6.26;100.00;101819.16;5263652;28;20025;-67
2023/03/20 10:12:39;;;;;;;23.65;9.85;;;;;;;6.25;100.00;101830.38;5263635;28;20078;-66
2023/03/20 10:15:50;;;;;;;25.40;9.70;;;;;;;6.27;100.00;101809.72;5227567;28;20068;-67
2023/03/20 10:18:25;;;;;;;25.00;10.57;;;;;;;6.24;100.00;101812.22;5256906;28;20041;-66
2023/03/20 10:21:17;;;;;;;18.92;9.63;;;;;;;6.30;100.00;101808.03;5263592;28;20536;-66
2023/03/20 10:23:55;;;;;;;18.92;9.20;;;;;;;6.37;100.00;101802.13;5263289;28;20036;-67
2023/03/20 10:26:30;;;;;;;26.13;10.38;;;;;;;6.38;100.00;101803.91;5263491;28;20457;-67
2023/03/20 10:29:12;;;;;;;22.67;10.27;;;;;;;6.52;100.00;101801.59;5245645;28;20033;-68
2023/03/20 10:31:49;;;;;;;23.90;10.57;;;;;;;6.79;100.00;101802.97;5263104;28;20483;-67
2023/03/20 10:34:36;;;;;;;19.23;10.20;;;;;;;6.90;100.00;101798.88;5263276;28;20033;-68
2023/03/20 10:37:30;;;;;;;22.38;9.13;;;;;;;7.06;100.00;101787.06;5262674;28;20036;-68
2023/03/20 10:40:28;;;;;;;20.33;8.50;;;;;;;7.14;100.00;101794.97;5262268;28;20124;-67
2023/03/20 10:43:15;;;;;;;16.08;9.15;;;;;;;6.99;100.00;101795.59;5263360;28;20025;-67
2023/03/20 10:45:56;;;;;;;19.42;9.55;;;;;;;6.87;100.00;101805.72;5262891;28;20039;-67
2023/03/20 10:48:40;;;;;;;21.70;9.30;;;;;;;6.95;100.00;101804.13;5262680;28;20029;-68
2023/03/20 10:51:26;;;;;;;16.45;8.35;;;;;;;6.91;100.00;101795.44;5262223;28;20035;-67
2023/03/20 10:54:01;;;;;;;20.35;8.95;;;;;;;6.91;100.00;101803.22;5262472;28;20061;-67
2023/03/20 10:56:41;;;;;;;17.60;9.55;;;;;;;7.14;100.00;101807.09;5262880;28;20033;-67
2023/03/20 10:59:36;;;;;;;16.15;8.35;;;;;;;7.18;100.00;101807.16;5263101;28;20460;-67
2023/03/20 11:02:12;;;;;;;20.33;8.30;;;;;;;7.10;100.00;101806.16;5262647;28;20456;-67
2023/03/20 11:04:44;;;;;;;23.05;10.02;;;;;;;7.06;100.00;101796.56;5262603;28;20055;-67
2023/03/20 11:07:15;;;;;;;16.13;7.30;;;;;;;7.08;100.00;101784.50;5262541;28;20036;-67
2023/03/20 11:10:06;;;;;;;20.43;8.63;;;;;;;7.10;100.00;101788.00;5263339;28;20028;-67
2023/03/20 11:12:46;;;;;;;20.25;8.73;;;;;;;7.20;100.00;101787.31;5262958;28;20029;-67
2023/03/20 11:15:20;;;;;;;19.05;7.95;;;;;;;7.23;100.00;101792.56;5262350;28;20029;-67
2023/03/20 11:17:54;;;;;;;17.50;7.28;;;;;;;7.28;100.00;101783.13;5262580;28;20032;-67
2023/03/20 11:20:32;;;;;;;15.38;7.35;;;;;;;7.29;100.00;101778.81;5262254;28;20065;-67
2023/03/20 11:23:07;;;;;;;17.15;9.07;;;;;;;7.41;100.00;101767.78;5262352;28;20039;-67
2023/03/20 11:25:48;;;;;;;20.65;7.40;;;;;;;7.41;100.00;101767.78;5262466;28;20038;-68
2023/03/20 11:28:38;;;;;;;16.35;6.93;;;;;;;7.59;100.00;101757.66;5262455;28;20102;-67
2023/03/20 11:31:12;;;;;;;19.42;7.20;;;;;;;7.58;100.00;101763.72;5262936;28;20037;-69
2023/03/20 11:33:50;;;;;;;17.95;7.20;;;;;;;7.63;100.00;101754.28;5261949;28;20044;-68
2023/03/20 11:36:21;;;;;;;15.75;6.70;;;;;;;7.77;100.00;101741.47;5262591;28;20060;-68
2023/03/20 11:39:00;;;;;;;17.67;6.60;;;;;;;7.93;100.00;101752.09;5262733;28;20060;-67
2023/03/20 11:41:32;;;;;;;19.38;7.43;;;;;;;8.07;100.00;101747.09;5262325;28;20070;-67
2023/03/20 11:44:18;;;;;;;14.32;6.28;;;;;;;8.16;99.67;101752.38;5262088;28;20037;-67
2023/03/20 11:46:58;;;;;;;15.23;6.13;;;;;;;8.24;99.86;101742.97;5261986;28;20112;-68
2023/03/20 11:49:46;;;;;;;18.02;6.93;;;;;;;8.43;100.00;101743.19;5260675;28;20040;-68
2023/03/20 11:52:24;;;;;;;19.92;7.35;;;;;;;8.33;98.65;101748.28;5261977;28;20029;-68